createdAt,value
2023-03-13T00:01:21.550Z,19.08
2023-03-13T00:02:23.122Z,17.12
2023-03-13T00:03:24.719Z,17.00
2023-03-13T00:04:26.280Z,16.03
2023-03-13T00:05:27.851Z,16.17
2023-03-13T00:06:33.542Z,16.57
2023-03-13T00:07:35.101Z,15.62
2023-03-13T00:08:37.061Z,15.35
2023-03-13T00:09:38.630Z,15.38
2023-03-13T00:10:41.442Z,15.12
2023-03-13T00:11:44.713Z,14.83
2023-03-13T00:12:46.253Z,15.08
2023-03-13T00:13:47.797Z,16.30
2023-03-13T00:14:49.458Z,18.05
2023-03-13T00:16:00.015Z,16.03
2023-03-13T00:17:01.660Z,15.80
2023-03-13T00:18:03.523Z,15.80
2023-03-13T00:19:06.614Z,16.17
2023-03-13T00:20:08.994Z,16.97
2023-03-13T00:21:10.597Z,15.98
2023-03-13T00:22:12.130Z,15.85
2023-03-13T00:23:13.680Z,15.02
2023-03-13T00:24:15.246Z,15.15
2023-03-13T00:25:16.981Z,14.93
2023-03-13T00:26:22.439Z,15.75
2023-03-13T00:27:23.997Z,15.05
2023-03-13T00:28:27.367Z,14.87
2023-03-13T00:29:30.213Z,14.33
2023-03-13T00:30:32.051Z,14.82
2023-03-13T00:31:33.780Z,14.70
2023-03-13T00:32:44.467Z,14.57
2023-03-13T00:33:48.683Z,14.58
2023-03-13T00:34:50.223Z,14.75
2023-03-13T00:35:51.791Z,14.08
2023-03-13T00:36:54.233Z,14.40
2023-03-13T00:37:55.777Z,14.35
2023-03-13T00:38:58.790Z,13.47
2023-03-13T00:40:00.357Z,13.43
2023-03-13T00:41:07.321Z,14.22
2023-03-13T00:42:08.915Z,13.20
2023-03-13T00:43:10.506Z,13.85
2023-03-13T00:44:12.178Z,14.43
2023-03-13T00:45:13.749Z,13.57
2023-03-13T00:46:17.674Z,14.15
2023-03-13T00:47:19.338Z,15.28
2023-03-13T00:48:21.435Z,16.12
2023-03-13T00:49:23.185Z,17.27
2023-03-13T00:50:24.964Z,19.17
2023-03-13T00:51:27.749Z,18.28
2023-03-13T00:52:29.355Z,18.10
2023-03-13T00:53:30.968Z,17.58
2023-03-13T00:54:32.778Z,15.97
2023-03-13T00:55:34.353Z,16.05
2023-03-13T00:56:35.941Z,15.70
2023-03-13T00:57:37.490Z,16.00
2023-03-13T00:58:40.861Z,15.17
2023-03-13T00:59:42.391Z,15.70
2023-03-13T01:00:44.055Z,15.63
2023-03-13T01:01:45.641Z,14.95
2023-03-13T01:02:47.401Z,13.88
2023-03-13T01:03:52.538Z,14.20
2023-03-13T01:04:54.126Z,13.38
2023-03-13T01:06:00.255Z,13.63
2023-03-13T01:07:01.820Z,13.38
2023-03-13T01:08:03.453Z,13.67
2023-03-13T01:09:06.518Z,13.12
2023-03-13T01:10:08.950Z,13.68
2023-03-13T01:11:14.275Z,14.35
2023-03-13T01:12:15.821Z,14.68
2023-03-13T01:13:17.366Z,14.57
2023-03-13T01:14:20.299Z,15.10
2023-03-13T01:15:21.924Z,14.22
2023-03-13T01:16:24.733Z,14.52
2023-03-13T01:17:26.270Z,15.95
2023-03-13T01:18:27.846Z,15.75
2023-03-13T01:19:29.376Z,17.07
2023-03-13T01:20:30.975Z,16.98
2023-03-13T01:21:32.718Z,16.98
2023-03-13T01:22:34.273Z,16.62
2023-03-13T01:23:36.184Z,15.40
2023-03-13T01:24:38.721Z,15.93
2023-03-13T01:25:40.251Z,16.37
2023-03-13T01:26:41.820Z,16.02
2023-03-13T01:27:43.410Z,16.42
2023-03-13T01:28:45.565Z,16.18
2023-03-13T01:29:47.120Z,17.15
2023-03-13T01:30:48.856Z,17.27
2023-03-13T01:31:50.529Z,17.15
2023-03-13T01:32:52.112Z,17.72
2023-03-13T01:33:56.974Z,16.73
2023-03-13T01:34:58.537Z,17.55
2023-03-13T01:36:04.117Z,18.03
2023-03-13T01:37:05.742Z,17.43
2023-03-13T01:38:07.372Z,17.62
2023-03-13T01:39:08.982Z,17.08
2023-03-13T01:40:11.678Z,17.30
2023-03-13T01:41:13.328Z,16.48
2023-03-13T01:42:14.953Z,16.88
2023-03-13T01:43:29.316Z,17.00
2023-03-13T01:44:50.759Z,16.28
2023-03-13T01:46:03.473Z,17.15
2023-03-13T01:47:05.247Z,16.43
2023-03-13T01:48:06.945Z,16.40
2023-03-13T01:49:19.692Z,16.82
2023-03-13T01:50:21.769Z,16.55
2023-03-13T01:51:49.273Z,16.60
2023-03-13T01:52:51.259Z,17.67
2023-03-13T01:54:11.350Z,17.83
2023-03-13T01:55:17.176Z,15.62
2023-03-13T01:56:29.816Z,16.60
2023-03-13T01:57:37.346Z,15.55
2023-03-13T01:58:39.273Z,16.20
2023-03-13T01:59:47.554Z,16.55
2023-03-13T02:00:49.941Z,16.00
2023-03-13T02:01:55.786Z,16.00
2023-03-13T02:03:06.215Z,15.78
2023-03-13T02:04:07.939Z,15.55
2023-03-13T02:05:10.258Z,15.80
2023-03-13T02:06:12.253Z,15.35
2023-03-13T02:07:19.988Z,16.55
2023-03-13T02:08:33.134Z,16.47
2023-03-13T02:09:37.045Z,16.70
2023-03-13T02:10:48.955Z,16.05
2023-03-13T02:12:02.402Z,17.20
2023-03-13T02:13:04.019Z,16.62
2023-03-13T02:14:05.901Z,16.35
2023-03-13T02:15:18.082Z,17.80
2023-03-13T02:16:21.196Z,17.38
2023-03-13T02:17:23.773Z,17.52
2023-03-13T02:18:25.393Z,18.40
2023-03-13T02:19:41.753Z,17.83
2023-03-13T02:20:43.731Z,18.47
2023-03-13T02:22:06.780Z,18.13
2023-03-13T02:23:11.454Z,18.45
2023-03-13T02:24:20.906Z,18.03
2023-03-13T02:25:25.465Z,17.62
2023-03-13T02:26:27.510Z,17.18
2023-03-13T02:27:29.233Z,16.82
2023-03-13T02:28:34.596Z,18.88
2023-03-13T02:29:36.276Z,19.27
2023-03-13T02:30:38.953Z,17.25
2023-03-13T02:31:40.592Z,18.28
2023-03-13T02:32:44.269Z,19.22
2023-03-13T02:33:46.037Z,41.92
2023-03-13T02:34:52.621Z,30.63
2023-03-13T02:35:54.985Z,28.02
2023-03-13T02:36:59.266Z,90.82
2023-03-13T02:38:05.430Z,101.53
2023-03-13T02:39:08.000Z,91.35
2023-03-13T02:40:13.978Z,109.20
2023-03-13T02:41:17.289Z,82.72
2023-03-13T02:42:22.109Z,68.23
2023-03-13T02:43:31.895Z,38.67
2023-03-13T02:44:40.717Z,35.15
2023-03-13T02:45:42.284Z,22.10
2023-03-13T02:46:52.539Z,19.17
2023-03-13T02:47:54.495Z,18.22
2023-03-13T02:48:56.633Z,21.92
2023-03-13T02:49:58.222Z,18.17
2023-03-13T02:51:02.336Z,17.32
2023-03-13T02:52:12.777Z,17.90
2023-03-13T02:53:14.481Z,17.43
2023-03-13T02:54:23.403Z,18.18
2023-03-13T02:55:30.871Z,17.83
2023-03-13T02:56:37.690Z,18.87
2023-03-13T02:57:39.254Z,17.87
2023-03-13T02:58:50.115Z,19.13
2023-03-13T02:59:52.204Z,18.32
2023-03-13T03:00:53.871Z,17.48
2023-03-13T03:01:55.549Z,18.98
2023-03-13T03:02:57.105Z,18.23
2023-03-13T03:03:58.757Z,18.30
2023-03-13T03:05:00.397Z,17.92
2023-03-13T03:06:02.230Z,17.67
2023-03-13T03:07:04.014Z,44.85
2023-03-13T03:08:05.621Z,19.03
2023-03-13T03:09:07.337Z,18.02
2023-03-13T03:10:09.641Z,18.40
2023-03-13T03:11:11.847Z,18.37
2023-03-13T03:12:13.452Z,18.42
2023-03-13T03:13:14.972Z,18.38
2023-03-13T03:14:17.121Z,18.72
2023-03-13T03:15:18.753Z,19.12
2023-03-13T03:16:20.358Z,19.38
2023-03-13T03:17:21.941Z,18.87
2023-03-13T03:18:23.502Z,24.08
2023-03-13T03:19:25.096Z,23.45
2023-03-13T03:20:26.678Z,21.98
2023-03-13T03:21:28.245Z,20.18
2023-03-13T03:22:29.770Z,19.53
2023-03-13T03:23:31.319Z,19.37
2023-03-13T03:24:32.977Z,19.17
2023-03-13T03:25:34.550Z,22.03
2023-03-13T03:26:36.382Z,20.92
2023-03-13T03:27:37.993Z,19.47
2023-03-13T03:28:39.676Z,22.40
2023-03-13T03:29:41.257Z,29.87
2023-03-13T03:30:42.814Z,28.30
2023-03-13T03:31:44.437Z,29.53
2023-03-13T03:32:46.104Z,29.42
2023-03-13T03:33:48.318Z,22.33
2023-03-13T03:34:49.829Z,21.77
2023-03-13T03:35:51.477Z,19.98
2023-03-13T03:36:53.156Z,20.12
2023-03-13T03:37:54.684Z,20.32
2023-03-13T03:38:56.216Z,19.82
2023-03-13T03:39:57.822Z,19.37
2023-03-13T03:40:59.374Z,22.10
2023-03-13T03:42:00.925Z,21.63
2023-03-13T03:43:02.674Z,21.62
2023-03-13T03:44:05.666Z,19.33
2023-03-13T03:45:07.695Z,52.70
2023-03-13T03:46:09.433Z,36.63
2023-03-13T03:47:11.048Z,24.22
2023-03-13T03:48:12.634Z,22.42
2023-03-13T03:49:14.161Z,25.05
2023-03-13T03:50:15.862Z,27.92
2023-03-13T03:51:17.415Z,24.08
2023-03-13T03:52:18.992Z,20.50
2023-03-13T03:53:21.154Z,36.82
2023-03-13T03:54:22.732Z,24.52
2023-03-13T03:55:24.310Z,31.13
2023-03-13T03:56:25.895Z,31.97
2023-03-13T03:57:27.429Z,20.67
2023-03-13T03:58:29.068Z,26.00
2023-03-13T03:59:30.656Z,23.03
2023-03-13T04:00:32.351Z,19.43
2023-03-13T04:01:33.907Z,28.57
2023-03-13T04:02:35.544Z,30.27
2023-03-13T04:03:37.357Z,20.97
2023-03-13T04:04:38.966Z,19.72
2023-03-13T04:05:41.217Z,20.68
2023-03-13T04:06:42.798Z,24.47
2023-03-13T04:07:44.327Z,22.08
2023-03-13T04:08:45.897Z,30.48
2023-03-13T04:09:47.556Z,22.57
2023-03-13T04:10:49.134Z,19.93
2023-03-13T04:11:50.882Z,19.50
2023-03-13T04:12:52.442Z,20.52
2023-03-13T04:13:53.988Z,21.88
2023-03-13T04:14:55.614Z,34.02
2023-03-13T04:15:57.173Z,56.65
2023-03-13T04:16:58.805Z,28.58
2023-03-13T04:18:00.589Z,20.03
2023-03-13T04:19:02.171Z,22.82
2023-03-13T04:20:04.778Z,22.07
2023-03-13T04:21:06.466Z,21.72
2023-03-13T04:22:08.027Z,41.65
2023-03-13T04:23:09.552Z,53.38
2023-03-13T04:24:11.074Z,38.12
2023-03-13T04:25:12.693Z,30.53
2023-03-13T04:26:14.216Z,32.43
2023-03-13T04:27:15.792Z,70.72
2023-03-13T04:28:17.322Z,63.62
2023-03-13T04:29:20.116Z,32.92
2023-03-13T04:30:21.819Z,86.88
2023-03-13T04:31:23.379Z,70.40
2023-03-13T04:32:25.309Z,24.12
2023-03-13T04:33:27.485Z,90.58
2023-03-13T04:34:29.112Z,94.72
2023-03-13T04:35:30.761Z,30.80
2023-03-13T04:36:32.416Z,41.28
2023-03-13T04:37:34.418Z,19.93
2023-03-13T04:38:35.976Z,18.23
2023-03-13T04:39:37.554Z,19.12
2023-03-13T04:40:39.146Z,29.22
2023-03-13T04:41:40.787Z,21.48
2023-03-13T04:42:42.480Z,20.50
2023-03-13T04:43:44.045Z,25.15
2023-03-13T04:44:45.606Z,33.13
2023-03-13T04:45:47.312Z,19.90
2023-03-13T04:46:49.352Z,19.00
2023-03-13T04:47:50.960Z,18.17
2023-03-13T04:48:52.502Z,18.53
2023-03-13T04:49:54.017Z,18.12
2023-03-13T04:50:55.585Z,19.07
2023-03-13T04:51:57.339Z,21.50
2023-03-13T04:52:58.963Z,24.45
2023-03-13T04:54:00.524Z,23.53
2023-03-13T04:55:02.068Z,29.00
2023-03-13T04:56:03.983Z,89.92
2023-03-13T04:57:05.632Z,35.10
2023-03-13T04:58:07.274Z,32.52
2023-03-13T04:59:09.843Z,79.40
2023-03-13T05:00:11.792Z,112.85
2023-03-13T05:01:13.467Z,25.43
2023-03-13T05:02:15.019Z,21.60
2023-03-13T05:03:16.997Z,21.17
2023-03-13T05:04:18.580Z,25.67
2023-03-13T05:05:20.249Z,36.52
2023-03-13T05:06:22.034Z,56.83
2023-03-13T05:07:23.674Z,20.55
2023-03-13T05:08:25.236Z,18.90
2023-03-13T05:09:26.873Z,18.55
2023-03-13T05:10:28.423Z,18.03
2023-03-13T05:11:30.481Z,17.57
2023-03-13T05:12:32.024Z,18.27
2023-03-13T05:13:34.201Z,17.73
2023-03-13T05:14:35.755Z,18.53
2023-03-13T05:15:37.322Z,18.08
2023-03-13T05:16:39.268Z,17.38
2023-03-13T05:17:40.794Z,18.05
2023-03-13T05:18:42.381Z,17.98
2023-03-13T05:19:44.016Z,20.93
2023-03-13T05:20:45.620Z,19.37
2023-03-13T05:21:47.192Z,17.15
2023-03-13T05:22:48.764Z,17.12
2023-03-13T05:23:50.344Z,17.22
2023-03-13T05:24:51.985Z,17.07
2023-03-13T05:25:53.744Z,17.97
2023-03-13T05:26:55.287Z,16.87
2023-03-13T05:27:56.852Z,17.37
2023-03-13T05:28:58.412Z,17.58
2023-03-13T05:29:59.931Z,17.25
2023-03-13T05:31:01.646Z,17.23
2023-03-13T05:32:03.239Z,17.52
2023-03-13T05:33:04.914Z,17.58
2023-03-13T05:34:06.508Z,18.15
2023-03-13T05:35:08.257Z,18.22
2023-03-13T05:36:09.871Z,18.15
2023-03-13T05:37:11.525Z,17.28
2023-03-13T05:38:13.976Z,16.20
2023-03-13T05:39:15.545Z,17.65
2023-03-13T05:40:17.204Z,18.05
2023-03-13T05:41:18.770Z,16.60
2023-03-13T05:42:20.369Z,17.17
2023-03-13T05:43:21.924Z,17.30
2023-03-13T05:44:23.500Z,15.77
2023-03-13T05:45:25.161Z,15.95
2023-03-13T05:46:26.741Z,16.77
2023-03-13T05:47:28.292Z,16.37
2023-03-13T05:48:29.870Z,15.93
2023-03-13T05:49:31.452Z,16.48
2023-03-13T05:50:33.097Z,15.98
2023-03-13T05:51:34.697Z,15.75
2023-03-13T05:52:36.256Z,16.42
2023-03-13T05:53:37.822Z,15.82
2023-03-13T05:54:39.429Z,16.02
2023-03-13T05:55:40.960Z,16.20
2023-03-13T05:56:42.513Z,16.05
2023-03-13T05:57:48.440Z,16.20
2023-03-13T05:58:49.982Z,16.20
2023-03-13T05:59:51.580Z,15.60
2023-03-13T06:00:53.520Z,16.02
2023-03-13T06:01:55.240Z,15.45
2023-03-13T06:02:56.837Z,16.35
2023-03-13T06:03:58.450Z,15.92
2023-03-13T06:05:00.299Z,16.48
2023-03-13T06:06:02.015Z,15.83
2023-03-13T06:07:03.560Z,15.63
2023-03-13T06:08:05.393Z,15.92
2023-03-13T06:09:06.961Z,15.38
2023-03-13T06:10:09.148Z,15.93
2023-03-13T06:11:10.914Z,16.12
2023-03-13T06:12:12.523Z,15.45
2023-03-13T06:13:20.091Z,15.25
2023-03-13T06:14:22.030Z,15.67
2023-03-13T06:15:23.784Z,15.60
2023-03-13T06:16:25.603Z,15.95
2023-03-13T06:17:27.343Z,16.03
2023-03-13T06:18:28.937Z,16.07
2023-03-13T06:19:31.091Z,17.50
2023-03-13T06:20:32.687Z,18.05
2023-03-13T06:21:34.422Z,19.17
2023-03-13T06:22:35.982Z,18.13
2023-03-13T06:23:37.526Z,17.13
2023-03-13T06:24:39.138Z,16.07
2023-03-13T06:25:40.737Z,14.97
2023-03-13T06:26:42.332Z,15.53
2023-03-13T06:27:43.938Z,15.00
2023-03-13T06:28:45.487Z,14.80
2023-03-13T06:29:47.030Z,14.23
2023-03-13T06:30:48.627Z,14.38
2023-03-13T06:31:51.032Z,14.30
2023-03-13T06:32:52.816Z,14.42
2023-03-13T06:33:55.570Z,14.52
2023-03-13T06:34:57.147Z,14.38
2023-03-13T06:36:01.189Z,15.17
2023-03-13T06:37:03.385Z,15.05
2023-03-13T06:38:04.979Z,15.23
2023-03-13T06:39:06.533Z,15.65
2023-03-13T06:40:08.704Z,16.08
2023-03-13T06:41:10.338Z,15.97
2023-03-13T06:42:11.944Z,45.95
2023-03-13T06:43:13.519Z,44.38
2023-03-13T06:44:15.081Z,16.22
2023-03-13T06:45:16.820Z,15.48
2023-03-13T06:46:21.871Z,15.87
2023-03-13T06:47:23.466Z,16.42
2023-03-13T06:48:25.036Z,41.47
2023-03-13T06:49:26.640Z,121.12
2023-03-13T06:50:28.247Z,23.50
2023-03-13T06:51:30.660Z,21.53
2023-03-13T06:52:43.016Z,23.05
2023-03-13T06:53:46.045Z,17.18
2023-03-13T06:54:47.581Z,69.22
2023-03-13T06:55:49.342Z,51.92
2023-03-13T06:56:51.469Z,24.75
2023-03-13T06:57:53.366Z,16.57
2023-03-13T06:58:54.938Z,15.42
2023-03-13T06:59:56.450Z,15.27
2023-03-13T07:00:58.645Z,15.13
2023-03-13T07:02:00.297Z,35.68
2023-03-13T07:03:01.864Z,29.32
2023-03-13T07:04:03.537Z,69.95
2023-03-13T07:05:05.543Z,46.35
2023-03-13T07:06:08.868Z,26.13
2023-03-13T07:07:22.193Z,19.60
2023-03-13T07:08:31.476Z,16.10
2023-03-13T07:09:33.417Z,15.45
2023-03-13T07:10:34.982Z,17.07
2023-03-13T07:11:36.556Z,38.17
2023-03-13T07:12:38.677Z,34.22
2023-03-13T07:13:40.318Z,20.18
2023-03-13T07:14:41.860Z,17.85
2023-03-13T07:15:43.444Z,17.15
2023-03-13T07:16:46.281Z,17.10
2023-03-13T07:17:47.901Z,17.03
2023-03-13T07:18:49.467Z,16.12
2023-03-13T07:19:51.084Z,15.98
2023-03-13T07:20:57.567Z,16.72
2023-03-13T07:21:59.130Z,16.70
2023-03-13T07:23:00.755Z,16.32
2023-03-13T07:24:02.356Z,16.33
2023-03-13T07:25:04.952Z,16.45
2023-03-13T07:26:10.785Z,20.10
2023-03-13T07:27:12.489Z,16.97
2023-03-13T07:28:14.201Z,17.12
2023-03-13T07:29:15.788Z,16.60
2023-03-13T07:30:17.539Z,16.20
2023-03-13T07:31:21.366Z,16.90
2023-03-13T07:32:23.105Z,17.73
2023-03-13T07:33:24.761Z,21.80
2023-03-13T07:34:26.383Z,21.20
2023-03-13T07:35:27.999Z,16.42
2023-03-13T07:36:29.559Z,16.55
2023-03-13T07:37:31.149Z,15.00
2023-03-13T07:38:33.169Z,15.32
2023-03-13T07:39:34.753Z,20.62
2023-03-13T07:40:36.327Z,22.78
2023-03-13T07:41:40.120Z,19.73
2023-03-13T07:42:42.087Z,21.30
2023-03-13T07:43:43.706Z,15.20
2023-03-13T07:44:45.273Z,14.83
2023-03-13T07:45:54.679Z,28.50
2023-03-13T07:47:00.610Z,14.70
2023-03-13T07:48:02.309Z,15.12
2023-03-13T07:49:03.926Z,14.67
2023-03-13T07:50:05.962Z,14.58
2023-03-13T07:51:12.320Z,31.58
2023-03-13T07:52:14.183Z,16.23
2023-03-13T07:53:16.457Z,16.55
2023-03-13T07:54:18.209Z,14.82
2023-03-13T07:55:19.754Z,14.32
2023-03-13T07:56:23.889Z,17.28
2023-03-13T07:57:25.431Z,15.18
2023-03-13T07:58:29.926Z,17.15
2023-03-13T07:59:31.565Z,15.07
2023-03-13T08:00:33.172Z,15.28
2023-03-13T08:01:35.010Z,15.17
2023-03-13T08:02:36.648Z,16.37
2023-03-13T08:03:39.146Z,15.43
2023-03-13T08:04:40.816Z,14.62
2023-03-13T08:05:42.480Z,14.77
2023-03-13T08:06:44.070Z,14.02
2023-03-13T08:07:45.669Z,14.20
2023-03-13T08:08:47.513Z,14.18
2023-03-13T08:09:49.169Z,14.90
2023-03-13T08:10:50.751Z,15.23
2023-03-13T08:11:52.282Z,14.05
2023-03-13T08:12:53.810Z,14.43
2023-03-13T08:13:57.106Z,14.70
2023-03-13T08:14:58.662Z,16.58
2023-03-13T08:16:09.176Z,20.12
2023-03-13T08:17:10.821Z,15.45
2023-03-13T08:18:12.435Z,15.23
2023-03-13T08:19:13.980Z,16.40
2023-03-13T08:20:15.626Z,14.87
2023-03-13T08:21:26.033Z,14.82
2023-03-13T08:22:27.594Z,23.80
2023-03-13T08:23:29.222Z,20.17
2023-03-13T08:24:30.888Z,19.17
2023-03-13T08:25:33.125Z,15.05
2023-03-13T08:26:37.466Z,16.38
2023-03-13T08:27:39.032Z,16.62
2023-03-13T08:28:41.425Z,22.80
2023-03-13T08:29:43.028Z,15.78
2023-03-13T08:30:44.670Z,16.80
2023-03-13T08:31:48.391Z,15.73
2023-03-13T08:32:50.040Z,14.20
2023-03-13T08:33:52.530Z,15.23
2023-03-13T08:34:54.100Z,17.07
2023-03-13T08:35:55.722Z,16.10
2023-03-13T08:36:57.281Z,15.52
2023-03-13T08:37:58.844Z,14.87
2023-03-13T08:39:03.132Z,17.28
2023-03-13T08:40:05.210Z,19.02
2023-03-13T08:41:06.808Z,15.15
2023-03-13T08:42:12.557Z,15.43
2023-03-13T08:43:14.121Z,14.78
2023-03-13T08:44:18.313Z,17.35
2023-03-13T08:45:20.067Z,16.13
2023-03-13T08:46:22.748Z,14.10
2023-03-13T08:47:24.333Z,14.55
2023-03-13T08:48:26.018Z,14.12
2023-03-13T08:49:27.795Z,13.38
2023-03-13T08:50:29.439Z,14.05
2023-03-13T08:51:31.349Z,13.95
2023-03-13T08:52:32.975Z,13.40
2023-03-13T08:53:36.283Z,14.10
2023-03-13T08:54:37.888Z,14.12
2023-03-13T08:55:39.473Z,13.62
2023-03-13T08:56:41.163Z,13.28
2023-03-13T08:57:42.732Z,16.88
2023-03-13T08:58:44.751Z,16.98
2023-03-13T08:59:46.436Z,15.80
2023-03-13T09:00:47.986Z,13.78
2023-03-13T09:01:49.536Z,13.82
2023-03-13T09:02:51.166Z,13.93
2023-03-13T09:03:53.195Z,14.73
2023-03-13T09:04:54.804Z,14.80
2023-03-13T09:05:57.609Z,19.13
2023-03-13T09:06:59.423Z,14.45
2023-03-13T09:08:01.005Z,12.88
2023-03-13T09:09:03.291Z,12.58
2023-03-13T09:10:05.323Z,14.72
2023-03-13T09:11:12.260Z,13.72
2023-03-13T09:12:29.629Z,12.22
2023-03-13T09:13:34.496Z,17.13
2023-03-13T09:14:36.772Z,25.27
2023-03-13T09:15:38.817Z,21.98
2023-03-13T09:16:40.565Z,13.58
2023-03-13T09:17:42.414Z,22.40
2023-03-13T09:18:44.710Z,17.90
2023-03-13T09:19:59.333Z,14.78
2023-03-13T09:21:02.186Z,13.72
2023-03-13T09:22:03.799Z,15.03
2023-03-13T09:23:05.396Z,13.55
2023-03-13T09:24:07.490Z,14.62
2023-03-13T09:25:09.366Z,19.97
2023-03-13T09:26:12.436Z,14.23
2023-03-13T09:27:14.000Z,14.17
2023-03-13T09:28:15.926Z,12.48
2023-03-13T09:29:17.608Z,12.00
2023-03-13T09:30:19.258Z,12.27
2023-03-13T09:31:31.826Z,13.27
2023-03-13T09:32:33.659Z,12.28
2023-03-13T09:33:35.482Z,12.85
2023-03-13T09:34:37.050Z,14.03
2023-03-13T09:35:39.542Z,16.05
2023-03-13T09:36:41.250Z,14.92
2023-03-13T09:37:42.834Z,12.63
2023-03-13T09:38:44.602Z,13.18
2023-03-13T09:39:46.140Z,11.92
2023-03-13T09:41:04.845Z,12.27
2023-03-13T09:42:39.830Z,13.27
2023-03-13T09:43:51.715Z,12.33
2023-03-13T09:45:03.078Z,12.68
2023-03-13T09:46:14.550Z,13.95
2023-03-13T09:47:22.058Z,12.95
2023-03-13T09:48:29.046Z,12.88
2023-03-13T09:49:44.794Z,12.70
2023-03-13T09:51:01.578Z,12.83
2023-03-13T09:52:15.312Z,12.93
2023-03-13T09:53:34.218Z,12.15
2023-03-13T09:54:46.671Z,12.13
2023-03-13T09:55:48.439Z,12.08
2023-03-13T09:56:58.786Z,11.75
2023-03-13T09:58:10.906Z,10.77
2023-03-13T09:59:40.001Z,10.28
2023-03-13T10:00:46.444Z,11.37
2023-03-13T10:01:49.569Z,11.02
2023-03-13T10:03:01.678Z,10.87
2023-03-13T10:04:24.667Z,11.65
2023-03-13T10:05:28.800Z,11.33
2023-03-13T10:06:41.842Z,11.57
2023-03-13T10:07:43.884Z,10.68
2023-03-13T10:08:45.918Z,10.92
2023-03-13T10:09:47.579Z,11.98
2023-03-13T10:10:57.796Z,11.52
2023-03-13T10:12:19.644Z,12.12
2023-03-13T10:13:37.661Z,12.45
2023-03-13T10:14:52.547Z,12.67
2023-03-13T10:15:57.256Z,12.25
2023-03-13T10:17:09.788Z,10.83
2023-03-13T10:18:20.522Z,10.08
2023-03-13T10:19:34.159Z,11.38
2023-03-13T10:20:36.344Z,10.45
2023-03-13T10:21:39.935Z,10.77
2023-03-13T10:22:45.876Z,11.67
2023-03-13T10:24:00.612Z,13.00
2023-03-13T10:25:30.227Z,10.75
2023-03-13T10:26:37.085Z,101.65
2023-03-13T10:27:50.967Z,13.25
2023-03-13T10:28:53.442Z,17.42
2023-03-13T10:29:54.991Z,11.28
2023-03-13T10:31:14.561Z,11.62
2023-03-13T10:32:17.723Z,41.33
2023-03-13T10:33:26.342Z,49.43
2023-03-13T10:34:44.653Z,35.20
2023-03-13T10:35:46.672Z,11.53
2023-03-13T10:36:54.387Z,38.20
2023-03-13T10:38:05.941Z,24.05
2023-03-13T10:39:14.608Z,14.70
2023-03-13T10:40:26.418Z,12.20
2023-03-13T10:41:31.448Z,72.23
2023-03-13T10:42:42.422Z,80.38
2023-03-13T10:43:55.052Z,111.50
2023-03-13T10:44:59.573Z,98.07
2023-03-13T10:46:01.337Z,91.35
2023-03-13T10:47:04.473Z,40.75
2023-03-13T10:48:20.507Z,86.12
2023-03-13T10:49:23.974Z,46.97
2023-03-13T10:50:27.808Z,29.12
2023-03-13T10:51:40.873Z,38.95
2023-03-13T10:52:45.520Z,17.92
2023-03-13T10:53:47.059Z,9.65
2023-03-13T10:54:48.909Z,9.60
2023-03-13T10:55:53.906Z,10.22
2023-03-13T10:57:30.614Z,43.00
2023-03-13T10:58:44.722Z,20.43
2023-03-13T10:59:49.006Z,18.43
2023-03-13T11:00:50.660Z,36.07
2023-03-13T11:01:54.143Z,44.17
2023-03-13T11:02:56.015Z,26.03
2023-03-13T11:03:58.458Z,18.50
2023-03-13T11:05:26.011Z,8.62
2023-03-13T11:06:31.800Z,10.18
2023-03-13T11:07:36.177Z,8.83
2023-03-13T11:08:41.785Z,8.43
2023-03-13T11:09:43.353Z,31.53
2023-03-13T11:10:53.154Z,10.23
2023-03-13T11:12:01.369Z,8.65
2023-03-13T11:13:03.013Z,9.07
2023-03-13T11:14:16.276Z,8.95
2023-03-13T11:15:27.898Z,8.37
2023-03-13T11:16:30.045Z,9.58
2023-03-13T11:17:40.776Z,21.92
2023-03-13T11:18:54.483Z,45.03
2023-03-13T11:20:06.501Z,14.45
2023-03-13T11:21:19.972Z,8.60
2023-03-13T11:22:24.518Z,8.87
2023-03-13T11:23:30.656Z,13.72
2023-03-13T11:24:55.830Z,38.38
2023-03-13T11:26:38.965Z,20.60
2023-03-13T11:28:12.476Z,13.53
2023-03-13T11:29:26.986Z,39.62
2023-03-13T11:30:47.095Z,18.92
2023-03-13T11:31:58.144Z,20.80
2023-03-13T11:33:10.132Z,24.33
2023-03-13T11:34:37.508Z,15.82
2023-03-13T11:36:08.752Z,14.00
2023-03-13T11:37:13.556Z,12.60
2023-03-13T11:38:33.532Z,9.55
2023-03-13T11:40:01.840Z,8.72
2023-03-13T11:41:45.667Z,8.15
2023-03-13T11:42:56.414Z,13.68
2023-03-13T11:44:16.200Z,14.08
2023-03-13T11:45:53.144Z,15.17
2023-03-13T11:47:13.416Z,16.67
2023-03-13T11:48:44.201Z,13.88
2023-03-13T11:49:57.084Z,14.35
2023-03-13T11:51:20.709Z,9.65
2023-03-13T11:52:40.591Z,8.90
2023-03-13T11:54:17.174Z,12.82
2023-03-13T11:55:29.690Z,10.65
2023-03-13T11:56:36.921Z,12.77
2023-03-13T11:57:57.257Z,15.77
2023-03-13T11:59:23.629Z,15.25
2023-03-13T12:00:37.632Z,38.62
2023-03-13T12:01:46.820Z,23.00
2023-03-13T12:02:58.465Z,21.08
2023-03-13T12:04:09.875Z,15.12
2023-03-13T12:05:18.047Z,10.03
2023-03-13T12:06:46.152Z,13.38
2023-03-13T12:07:57.013Z,8.80
2023-03-13T12:09:28.125Z,18.93
2023-03-13T12:10:43.388Z,12.57
2023-03-13T12:12:09.200Z,13.90
2023-03-13T12:13:16.457Z,11.25
2023-03-13T12:14:39.317Z,12.32
2023-03-13T12:15:46.327Z,10.25
2023-03-13T12:17:28.350Z,9.85
2023-03-13T12:18:36.095Z,10.05
2023-03-13T12:19:55.388Z,11.95
2023-03-13T12:21:27.948Z,10.07
2023-03-13T12:22:38.410Z,10.45
2023-03-13T12:23:39.968Z,12.45
2023-03-13T12:24:55.375Z,9.97
2023-03-13T12:26:10.200Z,13.48
2023-03-13T12:27:17.667Z,11.88
2023-03-13T12:28:42.045Z,14.75
2023-03-13T12:29:59.339Z,12.45
2023-03-13T12:31:37.004Z,9.33
2023-03-13T12:33:00.244Z,12.83
2023-03-13T12:34:04.835Z,11.45
2023-03-13T12:35:12.769Z,14.52
2023-03-13T12:36:22.748Z,9.80
2023-03-13T12:37:54.464Z,11.50
2023-03-13T12:39:20.817Z,9.12
2023-03-13T12:40:40.454Z,11.65
2023-03-13T12:41:57.014Z,10.68
2023-03-13T12:43:09.197Z,11.25
2023-03-13T12:44:18.831Z,16.92
2023-03-13T12:45:23.848Z,14.68
2023-03-13T12:46:34.576Z,10.48
2023-03-13T12:47:55.099Z,11.35
2023-03-13T12:49:14.944Z,10.70
2023-03-13T12:51:07.404Z,10.05
2023-03-13T12:52:11.508Z,8.58
2023-03-13T12:53:36.954Z,9.37
2023-03-13T12:55:05.094Z,10.47
2023-03-13T12:56:31.263Z,10.67
2023-03-13T12:57:54.645Z,11.78
2023-03-13T12:58:56.155Z,11.20
2023-03-13T13:00:01.188Z,12.12
2023-03-13T13:01:05.806Z,11.78
2023-03-13T13:02:21.360Z,10.30
2023-03-13T13:03:29.031Z,16.40
2023-03-13T13:04:41.579Z,16.38
2023-03-13T13:06:01.952Z,10.82
2023-03-13T13:07:07.052Z,12.15
2023-03-13T13:08:25.457Z,15.25
2023-03-13T13:09:33.200Z,11.98
2023-03-13T13:10:34.765Z,12.03
2023-03-13T13:11:39.373Z,10.78
2023-03-13T13:12:46.123Z,9.83
2023-03-13T13:13:47.755Z,9.50
2023-03-13T13:14:49.250Z,9.32
2023-03-13T13:16:06.775Z,9.33
2023-03-13T13:17:23.631Z,9.75
2023-03-13T13:18:28.759Z,9.33
2023-03-13T13:19:42.190Z,8.32
2023-03-13T13:20:47.243Z,9.38
2023-03-13T13:22:36.656Z,9.22
2023-03-13T13:23:42.534Z,8.67
2023-03-13T13:24:52.460Z,8.87
2023-03-13T13:26:16.181Z,9.18
2023-03-13T13:27:32.986Z,9.67
2023-03-13T13:28:35.349Z,10.63
2023-03-13T13:29:36.835Z,10.35
2023-03-13T13:30:38.563Z,11.10
2023-03-13T13:31:49.268Z,10.03
2023-03-13T13:32:53.253Z,9.93
2023-03-13T13:33:55.077Z,9.75
2023-03-13T13:35:03.928Z,9.53
2023-03-13T13:36:08.520Z,10.25
2023-03-13T13:37:13.094Z,28.52
2023-03-13T13:38:17.603Z,22.23
2023-03-13T13:39:34.461Z,18.13
2023-03-13T13:40:36.066Z,11.25
2023-03-13T13:41:38.060Z,23.47
2023-03-13T13:42:51.926Z,33.48
2023-03-13T13:44:23.790Z,42.43
2023-03-13T13:45:35.327Z,18.03
2023-03-13T13:46:44.335Z,26.05
2023-03-13T13:47:50.771Z,11.08
2023-03-13T13:49:17.213Z,25.28
2023-03-13T13:50:22.089Z,22.38
2023-03-13T13:51:25.095Z,19.07
2023-03-13T13:52:40.909Z,14.08
2023-03-13T13:53:49.660Z,12.30
2023-03-13T13:54:56.859Z,13.70
2023-03-13T13:55:58.467Z,9.92
2023-03-13T13:57:14.315Z,12.48
2023-03-13T13:58:27.956Z,21.08
2023-03-13T14:00:16.240Z,17.55
2023-03-13T14:01:17.885Z,11.08
2023-03-13T14:02:26.307Z,14.78
2023-03-13T14:03:31.375Z,19.93
2023-03-13T14:04:43.561Z,17.25
2023-03-13T14:05:49.640Z,19.65
2023-03-13T14:06:53.540Z,31.88
2023-03-13T14:08:20.398Z,49.07